Time;durP1;ratioP1;P1;durP2;ratioP2;P2;SDS_P1;SDS_P2;PMS_P1;PMS_P2;Temp;Humidity;BMP_temperature;BMP_pressure;BME280_temperature;BME280_humidity;BME280_pressure;Samples;Min_cycle;Max_cycle;Signal;HPM_P1;HPM_P2
2022/09/28 00:01:16;;;;;;;;;4.00;3.00;;;;;13.75;73.66;99654.16;5078817;28;45425;-82
2022/09/28 00:03:43;;;;;;;;;3.33;3.33;;;;;13.69;73.67;99643.78;5080669;28;45337;-82
2022/09/28 00:06:11;;;;;;;;;1.33;1.33;;;;;13.68;73.57;99632.34;5072126;28;45424;-81
2022/09/28 00:08:38;;;;;;;;;0.00;0.00;;;;;13.71;73.68;99633.16;5071144;28;47116;-82
2022/09/28 00:11:05;;;;;;;;;3.67;2.67;;;;;13.72;73.70;99646.34;5066735;28;45532;-82
2022/09/28 00:13:32;;;;;;;;;2.00;1.00;;;;;13.66;73.41;99643.91;5082139;27;45646;-82
2022/09/28 00:16:09;;;;;;;;;3.67;1.33;;;;;13.70;73.44;99653.44;5066330;28;45352;-83
2022/09/28 00:18:35;;;;;;;;;3.33;1.67;;;;;13.72;73.36;99654.25;5068920;27;45851;-83
2022/09/28 00:21:08;;;;;;;;;3.00;3.00;;;;;13.70;73.11;99648.16;5079512;27;45632;-82
2022/09/28 00:26:19;;;;;;;;;2.00;2.00;;;;;13.65;72.80;99648.31;5070860;28;45417;-83
2022/09/28 00:28:44;;;;;;;;;3.00;1.67;;;;;13.62;72.81;99645.75;5064430;28;46664;-83
2022/09/28 00:31:10;;;;;;;;;3.33;3.33;;;;;13.58;72.40;99644.16;5061196;28;45586;-82
2022/09/28 00:33:35;;;;;;;;;1.67;1.67;;;;;13.50;72.61;99632.09;5065872;28;45293;-82
2022/09/28 00:36:01;;;;;;;;;2.00;2.00;;;;;13.56;72.76;99645.13;5069372;28;45425;-83
2022/09/28 00:38:29;;;;;;;;;2.33;1.00;;;;;13.48;73.08;99628.66;5075341;28;46043;-82
2022/09/28 00:40:54;;;;;;;;;4.67;3.33;;;;;13.54;72.79;99641.66;5062282;28;45351;-82
2022/09/28 00:43:20;;;;;;;;;1.33;1.00;;;;;13.54;72.77;99639.03;5074201;28;45412;-82
2022/09/28 00:45:57;;;;;;;;;2.67;1.33;;;;;13.45;72.85;99630.47;5073007;28;45185;-82
2022/09/28 00:48:28;;;;;;;;;2.00;2.00;;;;;13.49;72.63;99635.66;5068876;28;45480;-82
2022/09/28 00:50:54;;;;;;;;;3.33;2.67;;;;;13.42;72.83;99624.44;5067320;28;45296;-82
2022/09/28 00:53:29;;;;;;;;;2.67;2.67;;;;;13.41;72.84;99620.06;5074471;27;45591;-83
2022/09/28 00:56:02;;;;;;;;;1.67;1.67;;;;;13.41;72.77;99625.34;5075437;28;45499;-83
2022/09/28 00:58:35;;;;;;;;;1.00;1.00;;;;;13.41;72.83;99633.28;5071651;28;45569;-82
2022/09/28 01:01:01;;;;;;;;;2.67;2.67;;;;;13.39;72.91;99629.81;5080268;28;45809;-82
2022/09/28 01:03:27;;;;;;;;;3.67;3.67;;;;;13.36;73.03;99625.47;5070685;28;45490;-82
2022/09/28 01:05:56;;;;;;;;;3.67;1.00;;;;;13.41;72.81;99635.91;5076732;28;45383;-82
2022/09/28 01:08:26;;;;;;;;;4.67;4.67;;;;;13.36;73.00;99628.13;5073427;28;45400;-82
2022/09/28 01:10:51;;;;;;;;;4.00;3.00;;;;;13.39;73.38;99638.63;5067971;28;45447;-82
2022/09/28 01:13:18;;;;;;;;;3.67;3.00;;;;;13.33;73.34;99622.94;5068935;27;45409;-82
2022/09/28 01:16:17;;;;;;;;;4.00;1.33;;;;;13.36;73.25;99630.78;5073931;28;45546;-82
2022/09/28 01:19:07;;;;;;;;;3.00;3.00;;;;;13.39;73.13;99635.09;5062483;28;45643;-82
2022/09/28 01:22:14;;;;;;;;;3.00;3.00;;;;;13.38;73.25;99630.72;5085950;27;45428;-82
2022/09/28 01:24:47;;;;;;;;;3.00;1.67;;;;;13.37;73.49;99624.59;5080406;27;45487;-82
2022/09/28 01:27:18;;;;;;;;;2.00;2.00;;;;;13.42;73.41;99629.72;5081238;27;45408;-82
2022/09/28 01:29:54;;;;;;;;;2.33;2.00;;;;;13.40;73.75;99619.19;5082923;27;45263;-82
2022/09/28 01:32:51;;;;;;;;;5.00;4.00;;;;;13.41;73.92;99620.91;5069576;28;45279;-82
2022/09/28 01:35:24;;;;;;;;;3.00;2.00;;;;;13.35;73.76;99610.53;5067791;27;45386;-82
2022/09/28 01:38:04;;;;;;;;;2.00;2.00;;;;;13.35;73.99;99614.97;5066734;28;45239;-82
2022/09/28 01:40:32;;;;;;;;;3.33;2.00;;;;;13.36;74.01;99630.78;5064613;28;47294;-83
2022/09/28 01:43:13;;;;;;;;;2.00;2.00;;;;;13.37;74.20;99627.22;5062723;28;45453;-82
2022/09/28 01:45:53;;;;;;;;;3.00;3.00;;;;;13.38;74.35;99618.38;5070435;27;45354;-83
2022/09/28 01:48:25;;;;;;;;;2.00;2.00;;;;;13.36;74.17;99616.69;5074330;28;45527;-82
2022/09/28 01:50:56;;;;;;;;;2.00;2.00;;;;;13.38;74.30;99606.94;5071973;28;47264;-82
2022/09/28 01:53:38;;;;;;;;;3.00;2.67;;;;;13.40;73.94;99613.91;5068370;28;45585;-82
2022/09/28 01:56:14;;;;;;;;;2.00;2.00;;;;;13.42;74.34;99616.50;5066132;28;46152;-81
2022/09/28 01:58:48;;;;;;;;;5.00;4.00;;;;;13.40;73.99;99611.25;5073404;28;45649;-81
2022/09/28 02:01:23;;;;;;;;;3.33;2.67;;;;;13.35;74.07;99599.13;5075764;28;47401;-82
2022/09/28 02:04:00;;;;;;;;;5.00;4.00;;;;;13.40;73.97;99608.63;5059725;28;45281;-82
2022/09/28 02:06:37;;;;;;;;;5.67;4.00;;;;;13.38;74.13;99602.50;5070431;28;45541;-82
2022/09/28 02:09:09;;;;;;;;;3.00;2.00;;;;;13.37;74.17;99599.94;5072777;28;45350;-82
2022/09/28 02:11:40;;;;;;;;;3.33;3.00;;;;;13.38;74.17;99610.44;5070321;28;48463;-82
2022/09/28 02:14:13;;;;;;;;;4.00;4.00;;;;;13.39;74.09;99603.38;5067670;27;45477;-82
2022/09/28 02:16:45;;;;;;;;;3.00;2.33;;;;;13.40;73.98;99597.19;5080717;27;45439;-83
2022/09/28 02:19:33;;;;;;;;;4.00;4.00;;;;;13.43;73.77;99605.00;5068352;28;45456;-81
2022/09/28 02:22:13;;;;;;;;;3.00;3.00;;;;;13.41;73.85;99598.91;5078468;27;46270;-82
2022/09/28 02:24:54;;;;;;;;;1.00;1.00;;;;;13.40;74.17;99597.19;5068539;28;46390;-82
2022/09/28 02:27:42;;;;;;;;;4.00;1.33;;;;;13.36;74.24;99587.63;5073994;28;44770;-83
2022/09/28 02:30:08;;;;;;;;;4.33;2.33;;;;;13.35;74.15;99589.41;5072913;28;45541;-82
2022/09/28 02:32:39;;;;;;;;;3.00;3.00;;;;;13.35;73.69;99593.81;5061870;28;46486;-82
2022/09/28 02:35:16;;;;;;;;;2.00;2.00;;;;;13.34;73.99;99585.03;5075766;28;45470;-83
2022/09/28 02:37:43;;;;;;;;;2.67;2.67;;;;;13.35;73.89;99592.03;5079157;28;45305;-82
2022/09/28 02:40:17;;;;;;;;;4.67;3.67;;;;;13.32;74.03;99593.94;5061857;27;45338;-82
2022/09/28 02:43:05;;;;;;;;;4.00;4.00;;;;;13.38;74.13;99599.00;5073396;28;46468;-82
2022/09/28 02:45:54;;;;;;;;;3.00;3.00;;;;;13.36;73.73;99591.13;5049781;28;45586;-83
2022/09/28 02:48:28;;;;;;;;;4.00;2.00;;;;;13.38;74.16;99591.94;5073373;28;45717;-82
2022/09/28 02:51:08;;;;;;;;;6.33;3.33;;;;;13.37;74.04;99590.22;5073652;28;45350;-83
2022/09/28 02:53:46;;;;;;;;;4.67;4.00;;;;;13.34;74.00;99587.69;5068233;28;47597;-83
2022/09/28 02:56:36;;;;;;;;;5.67;4.00;;;;;13.33;73.78;99591.22;5060990;28;45835;-83
2022/09/28 02:59:30;;;;;;;;;5.00;2.00;;;;;13.25;74.01;99580.00;5074763;28;45214;-83
2022/09/28 03:01:59;;;;;;;;;2.00;2.00;;;;;13.25;74.02;99580.00;5040523;28;45522;-83
2022/09/28 03:04:24;;;;;;;;;2.00;2.00;;;;;13.25;73.99;99593.22;5077934;28;46946;-82
2022/09/28 03:07:00;;;;;;;;;3.00;3.00;;;;;13.24;73.85;99591.50;5068930;28;45234;-83
2022/09/28 03:09:32;;;;;;;;;3.00;3.00;;;;;13.17;73.58;99585.53;5067496;28;45228;-83
2022/09/28 03:12:05;;;;;;;;;2.00;2.00;;;;;13.16;73.75;99590.91;5080189;28;45429;-83
2022/09/28 03:14:30;;;;;;;;;5.25;3.50;;;;;13.11;73.93;99591.03;5078871;28;47501;-83
2022/09/28 03:16:56;;;;;;;;;3.00;3.00;;;;;13.18;74.07;99597.00;5064451;27;45422;-83
2022/09/28 03:19:30;;;;;;;;;6.67;4.33;;;;;13.16;73.83;99594.41;5068908;28;45310;-83
2022/09/28 03:21:55;;;;;;;;;3.00;3.00;;;;;13.17;73.68;99603.19;5067386;27;45434;-83
2022/09/28 03:24:21;;;;;;;;;4.00;3.00;;;;;13.16;73.98;99599.69;5067964;28;46087;-82
2022/09/28 03:26:46;;;;;;;;;5.00;4.00;;;;;13.14;74.30;99590.09;5080505;27;45607;-83
2022/09/28 03:29:12;;;;;;;;;4.00;4.00;;;;;13.19;74.09;99601.38;5066338;28;45399;-83
2022/09/28 03:31:37;;;;;;;;;4.00;4.00;;;;;13.20;74.26;99608.38;5059512;28;45538;-83
2022/09/28 03:34:03;;;;;;;;;2.33;2.33;;;;;13.12;74.12;99590.13;5087191;27;46848;-83
2022/09/28 03:36:28;;;;;;;;;2.00;2.00;;;;;13.16;73.94;99596.19;5076807;28;45261;-82
2022/09/28 03:38:54;;;;;;;;;2.67;2.67;;;;;13.17;74.11;99611.13;5066962;28;45263;-82
2022/09/28 03:41:20;;;;;;;;;2.00;2.00;;;;;13.20;73.80;99617.19;5076841;28;45665;-83
2022/09/28 03:43:46;;;;;;;;;3.33;2.00;;;;;13.19;73.93;99611.94;5068112;28;45459;-82
2022/09/28 03:46:11;;;;;;;;;5.33;5.00;;;;;13.18;74.29;99612.88;5066663;27;45545;-83
2022/09/28 03:48:37;;;;;;;;;5.00;5.00;;;;;13.16;73.68;99602.34;5074905;27;45400;-83
2022/09/28 03:51:08;;;;;;;;;4.33;4.33;;;;;13.19;73.60;99619.88;5063256;28;45373;-83
2022/09/28 03:53:34;;;;;;;;;4.00;4.00;;;;;13.14;73.89;99605.94;5077917;28;47808;-82
2022/09/28 03:56:04;;;;;;;;;3.00;3.00;;;;;13.15;73.88;99605.00;5076360;28;45171;-83
2022/09/28 03:58:30;;;;;;;;;4.00;4.00;;;;;13.12;74.00;99610.41;5071153;28;45326;-82
2022/09/28 04:01:03;;;;;;;;;2.33;2.33;;;;;13.09;73.77;99610.50;5081282;28;45575;-83
2022/09/28 04:03:30;;;;;;;;;4.25;3.75;;;;;13.05;74.36;99611.53;5087626;27;48126;-83
2022/09/28 04:05:55;;;;;;;;;5.50;4.75;;;;;13.10;73.83;99615.75;5066315;27;45457;-83
2022/09/28 04:08:20;;;;;;;;;4.50;3.75;;;;;13.08;74.11;99609.66;5072189;27;45500;-83
2022/09/28 04:10:46;;;;;;;;;5.00;4.00;;;;;13.11;74.21;99619.25;5075021;28;46152;-83
2022/09/28 04:13:12;;;;;;;;;3.50;3.00;;;;;13.16;74.20;99627.91;5072544;28;47063;-83
2022/09/28 04:15:37;;;;;;;;;3.67;3.00;;;;;13.17;74.14;99629.63;5064566;27;45867;-83
2022/09/28 04:18:04;;;;;;;;;5.00;4.00;;;;;13.17;74.06;99624.34;5072093;28;45290;-83
2022/09/28 04:20:29;;;;;;;;;6.75;6.75;;;;;13.17;74.12;99619.03;5067110;27;45515;-83
2022/09/28 04:22:57;;;;;;;;;3.00;3.00;;;;;13.15;74.25;99627.03;5078209;28;45585;-83
2022/09/28 04:25:22;;;;;;;;;5.75;4.00;;;;;13.16;73.85;99618.19;5065754;28;45424;-82
2022/09/28 04:30:32;;;;;;;;;5.33;3.00;;;;;13.15;73.92;99624.41;5076347;28;45385;-83
2022/09/28 04:32:57;;;;;;;;;2.67;2.00;;;;;13.13;73.85;99628.88;5074405;28;46101;-83
2022/09/28 04:35:23;;;;;;;;;4.00;2.33;;;;;13.11;73.86;99640.38;5061550;28;45408;-83
2022/09/28 04:37:49;;;;;;;;;5.00;4.67;;;;;13.05;73.88;99632.66;5075888;28;45406;-83
2022/09/28 04:40:14;;;;;;;;;4.33;3.33;;;;;13.10;73.88;99641.31;5076486;27;45433;-83
2022/09/28 04:42:39;;;;;;;;;3.50;3.00;;;;;13.09;74.01;99642.22;5075294;28;45406;-83
2022/09/28 04:45:06;;;;;;;;;4.00;4.00;;;;;13.09;74.12;99647.50;5075401;28;45348;-83
2022/09/28 04:47:31;;;;;;;;;5.25;4.25;;;;;13.07;74.06;99647.56;5075057;28;45347;-83
2022/09/28 04:49:57;;;;;;;;;4.75;4.75;;;;;13.09;74.23;99650.13;5075073;28;45251;-82
2022/09/28 04:52:22;;;;;;;;;6.50;6.50;;;;;13.08;74.18;99648.41;5075909;28;45333;-82
2022/09/28 04:54:50;;;;;;;;;5.75;4.25;;;;;13.01;74.14;99631.88;5069433;28;45234;-82
2022/09/28 04:57:15;;;;;;;;;6.50;6.00;;;;;13.08;74.27;99648.41;5069415;27;45306;-83
2022/09/28 04:59:41;;;;;;;;;4.50;4.50;;;;;13.02;74.22;99638.91;5081695;27;45393;-82
2022/09/28 05:02:06;;;;;;;;;6.00;5.25;;;;;13.05;73.96;99648.53;5081491;27;47084;-83
2022/09/28 05:04:32;;;;;;;;;6.50;6.25;;;;;13.07;74.28;99646.66;5074884;27;45429;-82
2022/09/28 05:06:57;;;;;;;;;6.25;6.00;;;;;13.02;74.36;99631.84;5074524;28;45362;-82
2022/09/28 05:09:23;;;;;;;;;7.75;7.75;;;;;13.02;73.95;99634.50;5068840;28;45283;-82
2022/09/28 05:11:49;;;;;;;;;8.25;7.00;;;;;13.02;73.83;99631.00;5077749;28;48412;-83
2022/09/28 05:14:15;;;;;;;;;6.50;5.25;;;;;13.06;74.36;99635.25;5074726;28;45321;-83
2022/09/28 05:16:40;;;;;;;;;5.25;5.25;;;;;12.99;74.31;99629.31;5078502;28;45358;-83
2022/09/28 05:19:06;;;;;;;;;5.00;5.00;;;;;13.06;74.07;99645.81;5071501;28;45221;-83
2022/09/28 05:21:31;;;;;;;;;4.75;4.25;;;;;13.07;74.02;99633.47;5082786;27;46578;-82
2022/09/28 05:23:57;;;;;;;;;6.50;5.75;;;;;13.06;74.21;99637.88;5075021;28;45436;-83
2022/09/28 05:26:23;;;;;;;;;4.75;3.50;;;;;13.10;74.25;99638.69;5068549;28;45303;-84
2022/09/28 05:28:49;;;;;;;;;7.50;5.00;;;;;13.11;74.18;99635.97;5079654;28;45302;-82
2022/09/28 05:31:15;;;;;;;;;4.75;3.50;;;;;13.17;73.73;99645.47;5076615;28;47402;-81
2022/09/28 05:33:40;;;;;;;;;4.00;4.00;;;;;13.12;74.08;99634.19;5073053;28;45344;-81
2022/09/28 05:36:14;;;;;;;;;6.00;5.00;;;;;13.15;73.97;99639.38;5073176;28;45422;-81
2022/09/28 05:38:39;;;;;;;;;4.25;4.25;;;;;13.09;73.68;99632.50;5073437;28;45271;-81
2022/09/28 05:41:05;;;;;;;;;5.00;5.00;;;;;13.15;73.90;99634.97;5072659;28;47147;-81
2022/09/28 05:43:31;;;;;;;;;6.75;4.25;;;;;13.11;73.79;99637.75;5067416;27;45273;-82
2022/09/28 05:45:58;;;;;;;;;7.00;6.00;;;;;13.17;73.63;99650.75;5076312;28;45383;-81
2022/09/28 05:48:24;;;;;;;;;6.00;5.00;;;;;13.10;73.85;99639.53;5072323;28;45421;-81
2022/09/28 05:50:51;;;;;;;;;7.25;4.25;;;;;13.13;73.78;99644.72;5072499;28;48117;-81
2022/09/28 05:53:16;;;;;;;;;5.75;4.75;;;;;13.13;73.85;99646.50;5082794;27;45791;-81
2022/09/28 05:55:42;;;;;;;;;9.75;6.00;;;;;13.15;73.78;99644.66;5066996;27;45171;-80
2022/09/28 05:58:07;;;;;;;;;6.00;5.00;;;;;13.15;74.11;99644.66;5073304;28;45431;-81
2022/09/28 06:00:34;;;;;;;;;7.00;5.25;;;;;13.18;73.75;99650.72;5080226;27;46429;-81
2022/09/28 06:03:05;;;;;;;;;3.00;3.00;;;;;13.21;73.66;99663.84;5089594;27;45355;-81
2022/09/28 06:05:33;;;;;;;;;6.00;6.00;;;;;13.20;73.87;99658.59;5074213;28;45422;-81
2022/09/28 06:07:59;;;;;;;;;6.00;5.50;;;;;13.21;73.66;99668.25;5066356;28;45266;-81
2022/09/28 06:10:27;;;;;;;;;6.00;6.00;;;;;13.15;74.00;99645.53;5081685;27;47942;-81
2022/09/28 06:12:54;;;;;;;;;6.67;5.67;;;;;13.17;73.67;99651.63;5067551;28;46258;-81
2022/09/28 06:15:21;;;;;;;;;9.00;6.25;;;;;13.17;73.99;99671.91;5077704;28;45434;-81
2022/09/28 06:17:46;;;;;;;;;5.25;5.25;;;;;13.12;73.89;99657.97;5086994;27;45530;-81
2022/09/28 06:20:12;;;;;;;;;7.25;4.50;;;;;13.14;73.77;99664.94;5060518;28;46223;-81
2022/09/28 06:22:38;;;;;;;;;6.00;4.00;;;;;13.11;73.94;99667.69;5077213;28;45185;-80
2022/09/28 06:25:05;;;;;;;;;5.33;4.67;;;;;13.12;73.56;99677.31;5073982;28;45303;-81
2022/09/28 06:27:31;;;;;;;;;5.50;4.25;;;;;13.07;73.79;99670.47;5072718;27;45652;-81
2022/09/28 06:29:56;;;;;;;;;6.25;6.00;;;;;13.05;73.63;99667.88;5076116;28;46783;-80
2022/09/28 06:32:22;;;;;;;;;6.75;5.75;;;;;13.08;74.02;99678.34;5067432;28;45418;-80
2022/09/28 06:34:47;;;;;;;;;8.50;6.50;;;;;13.08;73.49;99674.84;5076937;27;45501;-80
2022/09/28 06:37:12;;;;;;;;;5.25;4.75;;;;;13.13;73.75;99689.63;5071803;27;45472;-80
2022/09/28 06:39:38;;;;;;;;;4.50;4.00;;;;;13.12;73.88;99681.75;5071667;28;47341;-80
2022/09/28 06:42:03;;;;;;;;;5.75;5.00;;;;;13.16;73.21;99678.97;5066974;28;45381;-80
2022/09/28 06:44:31;;;;;;;;;6.00;5.25;;;;;13.21;73.45;99687.63;5076150;28;45389;-80
2022/09/28 06:46:56;;;;;;;;;6.25;5.25;;;;;13.18;73.31;99687.72;5071682;27;45626;-81
2022/09/28 06:49:21;;;;;;;;;4.50;4.00;;;;;13.23;73.55;99690.19;5072796;28;45636;-81
2022/09/28 06:51:47;;;;;;;;;6.00;5.75;;;;;13.24;73.49;99689.31;5067524;28;45252;-79
2022/09/28 06:54:13;;;;;;;;;6.75;6.75;;;;;13.31;73.04;99693.53;5064371;28;45277;-81
2022/09/28 06:56:38;;;;;;;;;4.75;4.75;;;;;13.34;72.65;99704.00;5086660;27;45290;-81
2022/09/28 06:59:04;;;;;;;;;5.00;4.50;;;;;13.39;72.74;99703.81;5072572;28;47772;-80
2022/09/28 07:01:29;;;;;;;;;6.25;6.00;;;;;13.40;73.12;99711.72;5077753;28;45235;-80
2022/09/28 07:03:55;;;;;;;;;4.00;3.00;;;;;13.36;72.40;99710.06;5064645;28;45334;-80
2022/09/28 07:06:22;;;;;;;;;6.50;6.50;;;;;13.39;72.59;99712.66;5069274;28;45437;-81
2022/09/28 07:08:48;;;;;;;;;7.50;5.25;;;;;13.46;72.62;99711.50;5072166;28;45405;-80
2022/09/28 07:11:14;;;;;;;;;5.00;4.00;;;;;13.53;72.26;99722.78;5067911;28;45464;-81
2022/09/28 07:13:40;;;;;;;;;3.00;3.00;;;;;13.51;72.07;99705.22;5074068;27;45411;-80
2022/09/28 07:16:05;;;;;;;;;5.75;4.75;;;;;13.54;72.04;99715.69;5068699;28;45457;-81
2022/09/28 07:18:31;;;;;;;;;8.25;7.75;;;;;13.59;71.58;99725.22;5070939;28;47053;-81
2022/09/28 07:20:57;;;;;;;;;8.00;5.25;;;;;13.64;71.53;99725.06;5068742;28;45317;-80
2022/09/28 07:23:22;;;;;;;;;10.50;8.75;;;;;13.68;71.44;99724.03;5073500;28;45308;-81
2022/09/28 07:25:49;;;;;;;;;5.50;5.00;;;;;13.68;71.32;99719.63;5069196;28;45229;-82
2022/09/28 07:28:16;;;;;;;;;6.50;5.25;;;;;13.73;71.38;99721.25;5080879;27;47527;-81
2022/09/28 07:30:43;;;;;;;;;3.50;3.25;;;;;13.83;71.23;99728.81;5081033;27;46896;-82
2022/09/28 07:33:13;;;;;;;;;5.50;4.50;;;;;13.89;70.67;99723.31;5080219;28;45421;-82
2022/09/28 07:35:40;;;;;;;;;5.75;5.75;;;;;13.93;70.71;99716.16;5077629;27;45266;-82
2022/09/28 07:38:07;;;;;;;;;9.50;6.00;;;;;13.97;70.59;99725.72;5061804;28;46321;-82
2022/09/28 07:43:20;;;;;;;;;4.00;3.50;;;;;14.09;70.14;99737.69;5066707;28;45428;-82
2022/09/28 07:45:51;;;;;;;;;6.00;5.75;;;;;14.11;70.20;99735.81;5086661;27;46067;-82
2022/09/28 07:48:17;;;;;;;;;5.75;4.75;;;;;14.15;70.02;99745.41;5075424;28;47028;-82
2022/09/28 07:50:51;;;;;;;;;9.25;8.75;;;;;14.23;69.68;99758.38;5074970;28;45484;-82
2022/09/28 07:53:21;;;;;;;;;3.00;1.50;;;;;14.26;69.23;99748.53;5067650;28;45478;-83
2022/09/28 07:56:03;;;;;;;;;6.75;4.25;;;;;14.34;69.55;99753.56;5081235;27;45442;-82
2022/09/28 07:58:31;;;;;;;;;4.00;4.00;;;;;14.38;69.07;99752.56;5065603;28;46566;-81
2022/09/28 08:00:59;;;;;;;;;4.33;4.00;;;;;14.43;68.93;99755.00;5077002;28;45306;-81
2022/09/28 08:03:26;;;;;;;;;6.67;5.67;;;;;14.50;68.35;99767.13;5071690;28;45338;-81
2022/09/28 08:05:56;;;;;;;;;5.00;4.00;;;;;14.54;67.96;99764.34;5080667;28;45564;-81
2022/09/28 08:08:22;;;;;;;;;2.67;2.67;;;;;14.55;67.95;99758.13;5086867;27;46462;-83
2022/09/28 08:10:47;;;;;;;;;5.00;3.00;;;;;14.60;67.55;99763.28;5073787;28;45291;-83
2022/09/28 08:13:15;;;;;;;;;4.00;4.00;;;;;14.64;67.58;99764.88;5074529;28;45295;-82
2022/09/28 08:15:41;;;;;;;;;3.33;2.00;;;;;14.63;67.31;99763.16;5079241;28;45438;-81
2022/09/28 08:18:06;;;;;;;;;4.67;4.33;;;;;14.62;67.09;99760.53;5074422;28;45471;-82
2022/09/28 08:23:18;;;;;;;;;5.67;5.33;;;;;14.71;66.71;99771.69;5075424;28;45481;-82
2022/09/28 08:25:48;;;;;;;;;4.67;3.33;;;;;14.73;66.37;99780.44;5083949;27;45519;-82
2022/09/28 08:28:17;;;;;;;;;3.33;3.33;;;;;14.73;66.67;99764.56;5071213;27;45754;-83
2022/09/28 08:30:44;;;;;;;;;3.67;3.67;;;;;14.84;66.15;99781.84;5090244;27;45428;-82
2022/09/28 08:33:16;;;;;;;;;3.00;3.00;;;;;14.88;65.33;99786.97;5061459;28;45348;-82
2022/09/28 08:35:41;;;;;;;;;4.00;4.00;;;;;14.89;65.42;99772.81;5077076;28;45550;-84
2022/09/28 08:38:08;;;;;;;;;2.33;2.00;;;;;14.96;64.93;99779.59;5059617;28;46925;-82
2022/09/28 08:40:59;;;;;;;;;4.00;2.67;;;;;14.96;65.09;99774.28;5060652;28;45784;-82
2022/09/28 08:43:46;;;;;;;;;4.67;4.00;;;;;15.09;64.91;99780.00;5069053;28;45493;-82
2022/09/28 08:46:16;;;;;;;;;5.33;4.00;;;;;15.17;64.83;99762.00;5078235;28;45609;-82
2022/09/28 08:48:55;;;;;;;;;4.00;3.00;;;;;15.30;64.51;99778.31;5069628;28;48105;-82
2022/09/28 08:51:42;;;;;;;;;3.00;3.00;;;;;15.37;64.28;99781.56;5062561;28;45654;-83
2022/09/28 08:54:21;;;;;;;;;3.00;3.00;;;;;15.39;63.37;99779.72;5074004;28;45432;-83
2022/09/28 08:56:51;;;;;;;;;3.00;3.00;;;;;15.44;62.44;99783.06;5069817;28;45249;-82
2022/09/28 08:59:21;;;;;;;;;1.00;1.00;;;;;15.52;62.40;99785.44;5081066;28;47131;-82
2022/09/28 09:02:02;;;;;;;;;1.00;1.00;;;;;15.63;61.74;99784.06;5070228;28;45984;-82
2022/09/28 09:04:28;;;;;;;;;2.00;2.00;;;;;15.71;61.35;99782.94;5074990;28;45491;-83
2022/09/28 09:07:11;;;;;;;;;3.67;2.00;;;;;15.69;60.58;99782.13;5072953;28;45491;-83
2022/09/28 09:09:57;;;;;;;;;3.00;3.00;;;;;15.68;60.55;99791.00;5060024;28;47419;-83
2022/09/28 09:12:50;;;;;;;;;1.67;1.67;;;;;15.66;60.48;99781.31;5065311;28;45448;-83
2022/09/28 09:15:38;;;;;;;;;2.00;2.00;;;;;15.64;60.63;99777.84;5065286;28;45271;-81
2022/09/28 09:18:36;;;;;;;;;3.00;3.00;;;;;15.73;60.71;99781.09;5075482;28;45432;-88
2022/09/28 09:21:11;;;;;;;;;2.33;2.33;;;;;15.76;59.76;99776.50;5084527;28;46407;-87
2022/09/28 09:23:47;;;;;;;;;0.67;0.67;;;;;15.81;59.81;99779.00;5068739;28;45866;-84
2022/09/28 09:26:17;;;;;;;;;2.00;1.00;;;;;15.94;59.71;99782.88;5073871;27;45216;-82
2022/09/28 09:29:02;;;;;;;;;2.00;2.00;;;;;16.04;59.37;99788.66;5079330;28;45436;-88
2022/09/28 09:31:34;;;;;;;;;2.67;2.00;;;;;16.14;59.15;99786.47;5086197;28;47257;-86
2022/09/28 09:34:35;;;;;;;;;7.00;3.00;;;;;16.24;58.80;99782.50;5076984;28;44736;-86
2022/09/28 09:37:25;;;;;;;;;1.33;1.33;;;;;16.32;58.89;99789.22;5081036;28;45808;-84
2022/09/28 09:39:56;;;;;;;;;2.67;2.67;;;;;16.36;58.37;99784.66;5080491;28;45373;-84
2022/09/28 09:42:48;;;;;;;;;4.00;2.00;;;;;16.37;58.54;99786.38;5080086;28;47437;-83
2022/09/28 09:45:45;;;;;;;;;2.00;2.00;;;;;16.38;58.37;99777.47;5070106;28;45432;-84
2022/09/28 09:48:21;;;;;;;;;1.00;1.00;;;;;16.38;57.93;99777.47;5079634;28;45329;-82
2022/09/28 09:50:52;;;;;;;;;2.33;2.00;;;;;16.41;57.20;99782.66;5079836;28;45405;-82
2022/09/28 09:53:23;;;;;;;;;3.00;3.00;;;;;16.44;57.36;99782.53;5064975;28;45980;-82
2022/09/28 09:55:56;;;;;;;;;3.00;2.00;;;;;16.50;57.33;99776.94;5073555;28;45279;-83
2022/09/28 09:58:34;;;;;;;;;2.33;2.33;;;;;16.62;56.85;99777.31;5077603;28;45338;-81
2022/09/28 10:01:12;;;;;;;;;2.67;2.67;;;;;16.65;56.41;99764.78;5078380;27;45272;-82
2022/09/28 10:03:42;;;;;;;;;2.00;2.00;;;;;16.69;55.99;99778.78;5066209;28;45997;-81
2022/09/28 10:06:19;;;;;;;;;2.00;1.00;;;;;16.67;55.83;99768.22;5075472;28;45316;-82
2022/09/28 10:08:51;;;;;;;;;1.33;1.00;;;;;16.68;55.16;99777.94;5077121;28;45362;-85
2022/09/28 10:11:27;;;;;;;;;4.67;3.33;;;;;16.68;55.25;99769.06;5077245;28;45744;-81
2022/09/28 10:13:52;;;;;;;;;1.67;1.67;;;;;16.77;55.32;99771.38;5076726;27;45564;-84
2022/09/28 10:16:18;;;;;;;;;3.33;3.33;;;;;16.90;55.67;99767.22;5077886;28;45813;-83
2022/09/28 10:18:44;;;;;;;;;2.00;2.00;;;;;17.08;55.17;99773.50;5069728;28;45267;-85
2022/09/28 10:21:15;;;;;;;;;2.33;2.00;;;;;17.26;54.67;99769.09;5077295;27;45513;-82
2022/09/28 10:23:42;;;;;;;;;3.00;2.00;;;;;17.34;53.25;99774.06;5067714;27;45397;-81
2022/09/28 10:26:26;;;;;;;;;2.33;1.00;;;;;17.39;54.12;99772.06;5078429;28;45492;-85
2022/09/28 10:29:00;;;;;;;;;1.00;1.00;;;;;17.49;54.01;99770.69;5079749;28;45512;-82
2022/09/28 10:31:48;;;;;;;;;3.33;2.67;;;;;17.62;54.05;99770.97;5064265;28;45524;-87
2022/09/28 10:34:17;;;;;;;;;2.33;2.33;;;;;17.69;53.83;99775.03;5089443;27;47146;-89
2022/09/28 10:36:50;;;;;;;;;4.67;2.33;;;;;17.81;52.93;99778.94;5082979;28;44825;-89
2022/09/28 10:39:57;;;;;;;;;3.00;3.00;;;;;17.96;52.58;99770.19;5071501;28;45410;-87
2022/09/28 10:42:27;;;;;;;;;1.33;1.33;;;;;18.15;52.19;99766.59;5066681;28;45821;-87
2022/09/28 10:45:11;;;;;;;;;1.33;1.33;;;;;18.25;51.71;99768.69;5080432;28;47897;-87
2022/09/28 10:47:37;;;;;;;;;2.00;2.00;;;;;18.24;51.55;99759.00;5085550;27;45235;-87
2022/09/28 10:50:12;;;;;;;;;2.67;2.00;;;;;18.21;51.23;99761.81;5080291;28;45515;-87
2022/09/28 10:52:40;;;;;;;;;0.67;0.33;;;;;18.14;50.99;99762.22;5076899;28;45452;-88
2022/09/28 10:55:28;;;;;;;;;4.00;3.67;;;;;18.11;50.57;99765.03;5077872;27;48590;-84
2022/09/28 10:57:53;;;;;;;;;3.67;3.00;;;;;18.18;50.85;99756.66;5062061;28;45527;-87
2022/09/28 11:00:34;;;;;;;;;1.00;1.00;;;;;18.43;50.09;99758.91;5077945;28;45512;-90
2022/09/28 11:03:01;;;;;;;;;2.00;2.00;;;;;18.57;49.87;99757.31;5075196;28;45537;-87
2022/09/28 11:05:27;;;;;;;;;0.67;0.67;;;;;18.60;49.75;99762.50;5071203;27;45764;-88
2022/09/28 11:07:54;;;;;;;;;1.67;1.67;;;;;18.56;49.68;99766.28;5081353;28;45762;-92
2022/09/28 11:10:29;;;;;;;;;3.67;0.67;;;;;18.62;49.95;99757.94;5070737;28;45411;-89
2022/09/28 11:12:56;;;;;;;;;3.50;3.00;;;;;18.75;49.31;99759.06;5074259;27;45474;-87
2022/09/28 11:15:27;;;;;;;;;2.00;1.00;;;;;18.87;49.30;99762.84;5077629;28;47484;-87
2022/09/28 11:17:52;;;;;;;;;2.00;1.00;;;;;18.94;48.47;99766.94;5093435;27;45584;-87
2022/09/28 11:20:24;;;;;;;;;3.00;2.00;;;;;18.94;47.82;99774.94;5080278;28;45705;-87
2022/09/28 11:23:14;;;;;;;;;1.00;1.00;;;;;18.98;47.84;99765.84;5080801;28;45477;-88
2022/09/28 11:25:41;;;;;;;;;4.00;4.00;;;;;19.11;47.76;99772.22;5080131;28;47009;-88
2022/09/28 11:28:21;;;;;;;;;2.00;2.00;;;;;19.12;47.62;99773.06;5084123;28;45557;-87
2022/09/28 11:30:51;;;;;;;;;3.00;2.00;;;;;18.98;47.03;99773.84;5069816;28;45679;-87
2022/09/28 11:33:45;;;;;;;;;0.00;0.00;;;;;18.77;47.09;99764.31;5082154;28;45438;-86
2022/09/28 11:36:14;;;;;;;;;3.00;2.00;;;;;18.55;47.32;99772.53;5094846;27;48485;-91
2022/09/28 11:39:10;;;;;;;;;0.67;0.67;;;;;18.33;47.24;99772.78;5082413;28;45608;-84
2022/09/28 11:42:06;;;;;;;;;3.00;2.00;;;;;18.13;47.71;99772.00;5076797;28;45388;-82
2022/09/28 11:44:38;;;;;;;;;4.33;3.33;;;;;17.98;47.84;99770.09;5074377;28;45462;-83
2022/09/28 11:47:43;;;;;;;;;2.00;2.00;;;;;17.84;47.98;99768.13;5097047;27;46369;-85
2022/09/28 11:50:25;;;;;;;;;2.00;2.00;;;;;17.70;48.25;99759.94;5065153;28;45300;-84
2022/09/28 11:53:03;;;;;;;;;3.33;3.00;;;;;17.59;48.77;99758.66;5064176;28;45429;-87
2022/09/28 11:55:42;;;;;;;;;2.33;2.00;;;;;17.45;49.48;99754.94;5079831;28;45554;-84
2022/09/28 11:58:23;;;;;;;;;2.00;2.00;;;;;17.39;49.61;99753.44;5067949;28;45491;-85
2022/09/28 12:00:58;;;;;;;;;1.67;1.67;;;;;17.39;50.05;99758.75;5078982;28;45406;-84
2022/09/28 12:03:55;;;;;;;;;3.00;3.00;;;;;17.36;49.50;99750.91;5065311;28;45525;-95
2022/09/28 12:06:34;;;;;;;;;3.00;2.00;;;;;18.66;50.80;99749.72;5061455;28;45602;-78